Clark Regional Airport


Codes: KJVY/
Name: Clark Regional Airport
City: Jeffersonville
Country: United States
Elevation: 474 ft.

Photos at Clark Regional Airport


   Photos courtesy of SpottingLog. You can add your own sightings and photos by signing up for a free trial today.



No photos found.

Weather at Clark Regional Airport


Time (UTC)DescriptionTempratureWindCloud coverageVisibilityPressureHumidity
15-Apr-2024 18:00Clear Sky26°C7 mph, SW8%10000m1015hPa59%
15-Apr-2024 21:00Light Rain27°C9 mph, SW5%10000m1013hPa55%
16-Apr-2024 00:00Light Rain23°C4 mph, SW21%10000m1013hPa82%
16-Apr-2024 03:00Light Rain20°C2 mph, W96%10000m1015hPa91%
16-Apr-2024 06:00Light Rain18°C2 mph, NE90%10000m1015hPa96%
16-Apr-2024 09:00Light Rain18°C2 mph, SE100%10000m1015hPa98%
16-Apr-2024 12:00Light Rain18°C4 mph, SE100%10000m1015hPa97%
16-Apr-2024 15:00Light Rain21°C11 mph, S100%10000m1016hPa89%
16-Apr-2024 18:00Overcast Clouds19°C4 mph, SE100%10000m1015hPa87%
16-Apr-2024 21:00Overcast Clouds25°C11 mph, S100%10000m1012hPa64%
17-Apr-2024 00:00Overcast Clouds22°C11 mph, S100%10000m1012hPa63%
17-Apr-2024 03:00Overcast Clouds21°C11 mph, S100%10000m1012hPa59%
17-Apr-2024 06:00Moderate Rain17°C11 mph, S100%3464m1011hPa92%
17-Apr-2024 09:00Light Rain17°C11 mph, S100%10000m1009hPa90%
17-Apr-2024 12:00Overcast Clouds17°C13 mph, S98%10000m1010hPa91%
17-Apr-2024 15:00Light Rain19°C13 mph, S94%10000m1009hPa88%
17-Apr-2024 18:00Light Rain21°C18 mph, SW98%6116m1007hPa84%
17-Apr-2024 21:00Moderate Rain21°C16 mph, SW80%10000m1007hPa85%
18-Apr-2024 00:00Light Rain19°C11 mph, W44%10000m1009hPa75%
18-Apr-2024 03:00Clear Sky16°C9 mph, W4%10000m1013hPa75%
18-Apr-2024 06:00Clear Sky13°C7 mph, W2%10000m1015hPa78%
18-Apr-2024 09:00Clear Sky11°C7 mph, W2%10000m1015hPa85%
18-Apr-2024 12:00Clear Sky11°C4 mph, W2%10000m1017hPa83%
18-Apr-2024 15:00Overcast Clouds15°C4 mph, NW100%10000m1018hPa62%
18-Apr-2024 18:00Overcast Clouds20°C4 mph, W99%10000m1017hPa49%
18-Apr-2024 21:00Broken Clouds22°C2 mph, W72%10000m1015hPa46%
19-Apr-2024 00:00Broken Clouds18°C0 mph, E82%10000m1015hPa64%
19-Apr-2024 03:00Overcast Clouds16°C4 mph, N99%10000m1015hPa75%
19-Apr-2024 06:00Light Rain14°C4 mph, N100%10000m1015hPa94%
19-Apr-2024 09:00Light Rain14°C7 mph, N100%10000m1014hPa94%
19-Apr-2024 12:00Light Rain12°C9 mph, N100%10000m1016hPa94%
19-Apr-2024 15:00Overcast Clouds12°C9 mph, N100%10000m1018hPa93%
19-Apr-2024 18:00Overcast Clouds16°C11 mph, N100%10000m1018hPa68%
19-Apr-2024 21:00Overcast Clouds16°C9 mph, N95%10000m1017hPa60%
20-Apr-2024 00:00Overcast Clouds13°C7 mph, N91%10000m1018hPa63%
20-Apr-2024 03:00Scattered Clouds10°C4 mph, NW25%10000m1021hPa67%
20-Apr-2024 06:00Scattered Clouds8°C7 mph, NW26%10000m1021hPa68%
20-Apr-2024 09:00Scattered Clouds6°C4 mph, NW41%10000m1022hPa67%
20-Apr-2024 12:00Few Clouds6°C7 mph, N20%10000m1023hPa68%
20-Apr-2024 15:00Clear Sky11°C9 mph, NW2%10000m1024hPa43%